Flight Track Log - Related Links

Times and Time Zones

All times are in EDT time to prevent confusion due to time zone crossing. See the FDX1347 flight status page for this flight to view local times or setup timezone preferences in your user account.

Time Position Orientation Groundspeed Altitude Reporting Facility
EDT Latitude Longitude Course Direction KTS MPH feet Rate Location/Type
Thu 09:53:42 PM 42.7278 -73.8108 205° Southwest 148 170 1,600  Level Boston Center
Thu 09:54:37 PM 42.6856 -73.8381 205° Southwest 231 266 3,300 2,023 Climbing Boston Center
Thu 09:55:08 PM 42.6892 -73.8892 276° West 258 297 4,500 2,901 Climbing Boston Center
Thu 09:56:08 PM 42.7067 -73.9883 284° West 277 319 7,700 2,900 Climbing Boston Center
Thu 09:57:08 PM 42.7178 -74.0933 278° West 282 325 10,300 2,050 Climbing Boston Center
Thu 09:58:08 PM 42.7264 -74.2036 276° West 312 359 11,800 1,545 Climbing Boston Center
Thu 09:59:20 PM 42.6700 -74.3433 241° Southwest 366 421 13,700 2,000 Climbing Boston Center
Thu 10:04:47 PM 42.3080 -75.1300 241° Southwest 455 524 25,100 1,984 Climbing FlightAware ADS-B
Thu 10:05:32 PM 42.2580 -75.2370 238° Southwest 464 534 26,000 1,341 Climbing FlightAware ADS-B
Thu 10:06:12 PM 42.2110 -75.3390 238° Southwest 472 543 27,000 1,482 Climbing FlightAware ADS-B
Thu 10:06:57 PM 42.1580 -75.4520 238° Southwest 480 552 28,100 1,650 Climbing FlightAware ADS-B
Thu 10:07:32 PM 42.1170 -75.5380 237° Southwest 481 554 29,200 2,325 Climbing FlightAware ADS-B
Thu 10:08:17 PM 42.0640 -75.6530 238° Southwest 469 540 31,200 2,200 Climbing FlightAware ADS-B
Thu 10:09:02 PM 42.0190 -75.7470 237° Southwest 469 540 32,500 2,000 Climbing FlightAware ADS-B
Thu 10:09:32 PM 41.9820 -75.8250 237° Southwest 467 537 33,700 2,381 Climbing FlightAware ADS-B
Thu 10:10:05 PM 41.9379 -75.9191 238° Southwest 458 527 35,000 2,215 Climbing FlightAware ADS-B
Thu 10:10:37 PM 41.9021 -75.9954 238° Southwest 452 520 36,100 1,839 Climbing FlightAware ADS-B
Thu 10:11:07 PM 41.8683 -76.0684 238° Southwest 449 517 36,900 1,500 Climbing FlightAware ADS-B
Thu 10:11:37 PM 41.8349 -76.1386 237° Southwest 448 516 37,600 1,100 Climbing FlightAware ADS-B
Thu 10:12:07 PM 41.8010 -76.2090 237° Southwest 449 517 38,000 400 Climbing FlightAware ADS-B
Thu 10:12:37 PM 41.7675 -76.2793 237° Southwest 449 517 38,000  Level FlightAware ADS-B
Thu 10:13:09 PM 41.7326 -76.3517 237° Southwest 448 516 38,000  Level FlightAware ADS-B
Thu 10:13:40 PM 41.6974 -76.4262 238° Southwest 449 517 38,000  Level FlightAware ADS-B
Thu 10:14:10 PM 41.6637 -76.4964 237° Southwest 449 517 38,000  Level FlightAware ADS-B
Thu 10:14:40 PM 41.6299 -76.5663 237° Southwest 450 518 38,000  Level FlightAware ADS-B
Thu 10:15:13 PM 41.5932 -76.6434 238° Southwest 451 519 38,000  Level FlightAware ADS-B
Thu 10:15:46 PM 41.5558 -76.7207 237° Southwest 452 520 38,000  Level FlightAware ADS-B
Thu 10:16:17 PM 41.5210 -76.7909 237° Southwest 452 520 38,000  Level FlightAware ADS-B
Thu 10:16:49 PM 41.4839 -76.8681 237° Southwest 452 520 38,000  Level FlightAware ADS-B
Thu 10:17:21 PM 41.4481 -76.9404 237° Southwest 451 519 38,000  Level FlightAware ADS-B
Thu 10:17:51 PM 41.4134 -77.0126 237° Southwest 450 518 38,000  Level FlightAware ADS-B
Thu 10:18:26 PM 41.3745 -77.0915 237° Southwest 450 518 38,000  Level FlightAware ADS-B
Thu 10:18:56 PM 41.3402 -77.1610 237° Southwest 450 518 38,000  Level FlightAware ADS-B
Thu 10:19:31 PM 41.2994 -77.2445 237° Southwest 450 518 38,000  Level FlightAware ADS-B
Thu 10:20:07 PM 41.2584 -77.3277 237° Southwest 450 518 38,000  Level FlightAware ADS-B
Thu 10:20:41 PM 41.2198 -77.4063 237° Southwest 450 518 38,000  Level FlightAware ADS-B
Thu 10:21:39 PM 41.1540 -77.5398 237° Southwest 450 518 38,000  Level FlightAware ADS-B
Thu 10:22:10 PM 41.1185 -77.6087 236° Southwest 449 517 38,000  Level FlightAware ADS-B
Thu 10:22:40 PM 41.0835 -77.6800 237° Southwest 450 518 38,000  Level FlightAware ADS-B
Thu 10:23:36 PM 41.0200 -77.8061 236° Southwest 450 518 38,000  Level FlightAware ADS-B
Thu 10:24:22 PM 40.9780 -77.8910 237° Southwest 450 518 38,000  Level FlightAware ADS-B
Thu 10:24:45 PM 40.9395 -77.9663 236° Southwest 450 518 38,000  Level FlightAware ADS-B
Thu 10:25:47 PM 40.8760 -78.0920 236° Southwest 449 517 38,000  Level FlightAware ADS-B
Thu 10:26:27 PM 40.8310 -78.1830 237° Southwest 448 516 38,000  Level FlightAware ADS-B
Thu 10:27:12 PM 40.7780 -78.2850 236° Southwest 447 514 38,000  Level FlightAware ADS-B
Thu 10:27:52 PM 40.7330 -78.3730 236° Southwest 446 513 38,000  Level FlightAware ADS-B
Thu 10:28:32 PM 40.6880 -78.4630 237° Southwest 445 512 38,000  Level FlightAware ADS-B
Thu 10:29:17 PM 40.6360 -78.5640 236° Southwest 443 510 38,000  Level FlightAware ADS-B
Thu 10:29:57 PM 40.5880 -78.6550 235° Southwest 442 509 38,000  Level FlightAware ADS-B
Thu 10:30:42 PM 40.5370 -78.7550 236° Southwest 442 509 38,000  Level FlightAware ADS-B
Thu 10:31:22 PM 40.4930 -78.8390 235° Southwest 439 505 38,000  Level FlightAware ADS-B
Thu 10:32:02 PM 40.4470 -78.9280 236° Southwest 439 505 38,000  Level FlightAware ADS-B
Thu 10:32:47 PM 40.3940 -79.0310 236° Southwest 438 504 38,000  Level FlightAware ADS-B
Thu 10:33:27 PM 40.3510 -79.1110 235° Southwest 437 503 38,000  Level FlightAware ADS-B
Thu 10:34:07 PM 40.3060 -79.1990 236° Southwest 435 501 38,000  Level FlightAware ADS-B
Thu 10:34:47 PM 40.2510 -79.3030 235° Southwest 435 501 38,000  Level FlightAware ADS-B
Thu 10:35:32 PM 40.2020 -79.3960 235° Southwest 434 499 38,000  Level FlightAware ADS-B
Thu 10:36:17 PM 40.1500 -79.4950 236° Southwest 434 499 38,000  Level FlightAware ADS-B
Thu 10:36:57 PM 40.1050 -79.5790 235° Southwest 434 499 38,000  Level FlightAware ADS-B
Thu 10:37:42 PM 40.0520 -79.6780 235° Southwest 435 501 38,000  Level FlightAware ADS-B
Thu 10:38:22 PM 40.0060 -79.7650 235° Southwest 434 499 38,000  Level FlightAware ADS-B
Thu 10:39:02 PM 39.9600 -79.8500 235° Southwest 433 498 38,000  Level FlightAware ADS-B
Thu 10:39:47 PM 39.9110 -79.9420 235° Southwest 433 498 38,000  Level FlightAware ADS-B
Thu 10:40:27 PM 39.8630 -80.0320 235° Southwest 430 495 38,000  Level FlightAware ADS-B
Thu 10:41:12 PM 39.8130 -80.1250 235° Southwest 429 494 38,000  Level FlightAware ADS-B
Thu 10:41:52 PM 39.7660 -80.2110 235° Southwest 428 493 38,000  Level FlightAware ADS-B
Thu 10:42:47 PM 39.7060 -80.3230 235° Southwest 427 491 38,000  Level FlightAware ADS-B
Thu 10:43:27 PM 39.6580 -80.4100 234° Southwest 427 491 38,000  Level FlightAware ADS-B
Thu 10:44:12 PM 39.6070 -80.5020 234° Southwest 426 490 38,000  Level FlightAware ADS-B
Thu 10:44:52 PM 39.5610 -80.5880 235° Southwest 427 491 38,000  Level FlightAware ADS-B
Thu 10:45:37 PM 39.5070 -80.6840 234° Southwest 427 491 38,000  Level FlightAware ADS-B
Thu 10:46:17 PM 39.4620 -80.7670 235° Southwest 427 491 38,000  Level FlightAware ADS-B
Thu 10:46:57 PM 39.4160 -80.8500 234° Southwest 427 491 38,000  Level FlightAware ADS-B
Thu 10:47:42 PM 39.3650 -80.9420 234° Southwest 426 490 38,000  Level FlightAware ADS-B
Thu 10:48:27 PM 39.3120 -81.0370 234° Southwest 425 489 38,000  Level FlightAware ADS-B
Thu 10:49:07 PM 39.2670 -81.1170 234° Southwest 425 489 38,000  Level FlightAware ADS-B
Thu 10:49:52 PM 39.2180 -81.2060 235° Southwest 424 488 38,000  Level FlightAware ADS-B
Thu 10:50:32 PM 39.1730 -81.2860 234° Southwest 424 488 38,000  Level FlightAware ADS-B
Thu 10:51:12 PM 39.1240 -81.3740 234° Southwest 423 487 38,000  Level FlightAware ADS-B
Thu 10:51:57 PM 39.0710 -81.4680 234° Southwest 423 487 38,000  Level FlightAware ADS-B
Thu 10:52:37 PM 39.0250 -81.5490 234° Southwest 423 487 38,000  Level FlightAware ADS-B
Thu 10:53:22 PM 38.9740 -81.6400 234° Southwest 424 488 38,000  Level FlightAware ADS-B
Thu 10:54:02 PM 38.9280 -81.7200 234° Southwest 425 489 38,000  Level FlightAware ADS-B
Thu 10:54:42 PM 38.8820 -81.8010 234° Southwest 424 488 38,000  Level FlightAware ADS-B
Thu 10:55:27 PM 38.8270 -81.8970 234° Southwest 425 489 38,000  Level FlightAware ADS-B
Thu 10:56:07 PM 38.7820 -81.9760 234° Southwest 425 489 38,000  Level FlightAware ADS-B
Thu 10:56:47 PM 38.7390 -82.0610 237° Southwest 425 489 38,000  Level FlightAware ADS-B
Thu 10:57:32 PM 38.7020 -82.1610 245° Southwest 427 491 38,000  Level FlightAware ADS-B
Thu 10:58:12 PM 38.6670 -82.2550 245° Southwest 427 491 38,000  Level FlightAware ADS-B
Thu 10:58:57 PM 38.6270 -82.3570 243° Southwest 427 491 38,000  Level FlightAware ADS-B
Thu 10:59:37 PM 38.5920 -82.4450 243° Southwest 428 493 38,000  Level FlightAware ADS-B
Thu 11:00:17 PM 38.5560 -82.5380 244° Southwest 428 493 38,000  Level FlightAware ADS-B
Thu 11:00:57 PM 38.5230 -82.6210 243° Southwest 429 494 38,000  Level FlightAware ADS-B
Thu 11:01:42 PM 38.4840 -82.7240 244° Southwest 430 495 38,000  Level FlightAware ADS-B
Thu 11:02:27 PM 38.4410 -82.8330 243° Southwest 430 495 38,000  Level FlightAware ADS-B
Thu 11:03:22 PM 38.3960 -82.9440 243° Southwest 431 496 38,000  Level FlightAware ADS-B
Thu 11:04:02 PM 38.3650 -83.0220 243° Southwest 431 496 38,000  Level FlightAware ADS-B
Thu 11:04:19 PM 38.3392 -83.0888 244° Southwest 431 496 38,000  Level FlightAware ADS-B
Thu 11:04:50 PM 38.3108 -83.1614 244° Southwest 431 496 38,000  Level FlightAware ADS-B
Thu 11:05:34 PM 38.2712 -83.2605 243° Southwest 430 495 38,000  Level FlightAware ADS-B
Thu 11:06:06 PM 38.2424 -83.3326 243° Southwest 429 494 38,000  Level FlightAware ADS-B
Thu 11:06:52 PM 38.2030 -83.4310 243° Southwest 427 491 38,000  Level FlightAware ADS-B
Thu 11:07:37 PM 38.1630 -83.5300 243° Southwest 426 490 38,000  Level FlightAware ADS-B
Thu 11:08:32 PM 38.1120 -83.6570 243° Southwest 426 490 38,000  Level FlightAware ADS-B
Thu 11:09:07 PM 38.0840 -83.7240 242° Southwest 426 490 38,000  Level FlightAware ADS-B
Thu 11:09:47 PM 38.0520 -83.7990 242° Southwest 426 490 38,000  Level FlightAware ADS-B
Thu 11:10:27 PM 38.0100 -83.9070 244° Southwest 426 490 38,000  Level FlightAware ADS-B
Thu 11:11:12 PM 37.9690 -84.0090 243° Southwest 425 489 38,000  Level FlightAware ADS-B
Thu 11:11:52 PM 37.9340 -84.0960 243° Southwest 425 489 38,000  Level FlightAware ADS-B
Thu 11:12:37 PM 37.8930 -84.1950 242° Southwest 425 489 38,000  Level FlightAware ADS-B
Thu 11:13:17 PM 37.8570 -84.2830 243° Southwest 424 488 38,000  Level FlightAware ADS-B
Thu 11:14:02 PM 37.8150 -84.3850 242° Southwest 426 490 38,000  Level FlightAware ADS-B
Thu 11:14:09 PM 37.8068 -84.4046 242° Southwest 426 490 38,000  Level FlightAware ADS-B
Thu 11:14:39 PM 37.7793 -84.4707 242° Southwest 426 490 38,000  Level FlightAware ADS-B
Thu 11:15:09 PM 37.7519 -84.5368 242° Southwest 425 489 38,000  Level FlightAware ADS-B
Thu 11:15:40 PM 37.7235 -84.6050 242° Southwest 425 489 38,000  Level FlightAware ADS-B
Thu 11:16:10 PM 37.6959 -84.6708 242° Southwest 424 488 38,000  Level FlightAware ADS-B
Thu 11:16:43 PM 37.6664 -84.7409 242° Southwest 425 489 38,000  Level FlightAware ADS-B
Thu 11:17:12 PM 37.6394 -84.8065 243° Southwest 425 489 38,000  Level FlightAware ADS-B
Thu 11:17:21 PM 37.6298 -84.8255 237° Southwest 424 488 38,000  Level FlightAware ADS-B
Thu 11:17:27 PM 37.6227 -84.8376 233° Southwest 423 487 38,000  Level FlightAware ADS-B
Thu 11:17:34 PM 37.6147 -84.8488 228° Southwest 422 486 38,000  Level FlightAware ADS-B
Thu 11:17:42 PM 37.6029 -84.8645 227° Southwest 420 483 38,000  Level FlightAware ADS-B
Thu 11:17:49 PM 37.5927 -84.8754 220° Southwest 420 483 38,000  Level FlightAware ADS-B
Thu 11:17:56 PM 37.5812 -84.8851 214° Southwest 419 482 38,000  Level FlightAware ADS-B
Thu 11:18:07 PM 37.5635 -84.8971 208° Southwest 419 482 38,000  Level FlightAware ADS-B
Thu 11:18:37 PM 37.5102 -84.9287 205° Southwest 419 482 38,000  Level FlightAware ADS-B
Thu 11:19:07 PM 37.4568 -84.9589 204° Southwest 420 483 38,000  Level FlightAware ADS-B
Thu 11:19:27 PM 37.4215 -84.9798 205° Southwest 419 482 38,000  Level FlightAware ADS-B
Thu 11:19:40 PM 37.4000 -84.9968 212° Southwest 419 482 38,000  Level FlightAware ADS-B
Thu 11:19:54 PM 37.3797 -85.0190 221° Southwest 420 483 38,000  Level FlightAware ADS-B
Thu 11:20:05 PM 37.3656 -85.0391 229° Southwest 420 483 38,000  Level FlightAware ADS-B
Thu 11:20:17 PM 37.3526 -85.0637 236° Southwest 422 486 38,000  Level FlightAware ADS-B
Thu 11:20:43 PM 37.3306 -85.1190 243° Southwest 425 489 38,000  Level FlightAware ADS-B
Thu 11:21:13 PM 37.3050 -85.1879 245° Southwest 425 489 38,000  Level FlightAware ADS-B
Thu 11:21:49 PM 37.2748 -85.2657 244° Southwest 425 489 38,000  Level FlightAware ADS-B
Thu 11:22:22 PM 37.2480 -85.3370 245° Southwest 425 489 38,000  Level FlightAware ADS-B
Thu 11:22:28 PM 37.2412 -85.3547 244° Southwest 425 489 38,000  Level FlightAware ADS-B
Thu 11:22:59 PM 37.2147 -85.4238 244° Southwest 426 490 38,000  Level FlightAware ADS-B
Thu 11:23:30 PM 37.1887 -85.4925 245° Southwest 426 490 38,000  Level FlightAware ADS-B
Thu 11:24:00 PM 37.1628 -85.5592 244° Southwest 425 489 38,000  Level FlightAware ADS-B
Thu 11:24:30 PM 37.1369 -85.6259 244° Southwest 430 495 38,000  Level FlightAware ADS-B
Thu 11:25:01 PM 37.1120 -85.6890 244° Southwest 434 499 38,000  Level FlightAware ADS-B
Thu 11:25:32 PM 37.0827 -85.7662 245° Southwest 437 503 38,000  Level FlightAware ADS-B
Thu 11:26:02 PM 37.0558 -85.8348 244° Southwest 439 505 38,000  Level FlightAware ADS-B
Thu 11:26:32 PM 37.0290 -85.9032 244° Southwest 440 506 38,000  Level FlightAware ADS-B
Thu 11:27:04 PM 37.0006 -85.9764 244° Southwest 440 506 38,000  Level FlightAware ADS-B
Thu 11:27:34 PM 36.9736 -86.0450 244° Southwest 442 509 38,000  Level FlightAware ADS-B
Thu 11:28:32 PM 36.9240 -86.1710 244° Southwest 443 510 38,000  Level FlightAware ADS-B
Thu 11:29:17 PM 36.8860 -86.2630 243° Southwest 443 510 38,000  Level FlightAware ADS-B
Thu 11:29:55 PM 36.8467 -86.3666 245° Southwest 444 511 38,000  Level FlightAware ADS-B
Thu 11:30:25 PM 36.8191 -86.4376 244° Southwest 444 511 38,000  Level FlightAware ADS-B
Thu 11:30:55 PM 36.7918 -86.5064 244° Southwest 444 511 38,000  Level FlightAware ADS-B
Thu 11:31:25 PM 36.7638 -86.5753 243° Southwest 445 512 38,000  Level FlightAware ADS-B
Thu 11:31:56 PM 36.7362 -86.6443 243° Southwest 445 512 38,000  Level FlightAware ADS-B
Thu 11:32:31 PM 36.7042 -86.7247 244° Southwest 445 512 38,000  Level FlightAware ADS-B
Thu 11:33:04 PM 36.6729 -86.8029 243° Southwest 447 514 38,000  Level FlightAware ADS-B
Thu 11:33:37 PM 36.6450 -86.8720 243° Southwest 448 516 38,000 -82 Level FlightAware ADS-B
Thu 11:34:17 PM 36.6070 -86.9660 243° Southwest 445 512 37,900 -825 Descending FlightAware ADS-B
Thu 11:34:57 PM 36.5700 -87.0580 243° Southwest 448 516 36,900 -1,341 Descending FlightAware ADS-B
Thu 11:35:42 PM 36.5280 -87.1620 243° Southwest 449 517 36,000 -1,059 Descending FlightAware ADS-B
Thu 11:36:22 PM 36.4920 -87.2520 244° Southwest 445 512 35,400 -706 Descending FlightAware ADS-B
Thu 11:37:07 PM 36.4490 -87.3560 243° Southwest 441 507 35,000 -282 Descending FlightAware ADS-B
Thu 11:37:47 PM 36.4120 -87.4460 243° Southwest 442 509 35,000  Level FlightAware ADS-B
Thu 11:38:27 PM 36.3750 -87.5380 243° Southwest 434 499 35,000  Level FlightAware ADS-B
Thu 11:39:12 PM 36.3350 -87.6350 243° Southwest 426 490 35,000  Level FlightAware ADS-B
Thu 11:39:52 PM 36.2990 -87.7200 242° Southwest 423 487 35,000 -494 Level FlightAware ADS-B
Thu 11:40:37 PM 36.2590 -87.8200 244° Southwest 416 479 34,300 -918 Descending FlightAware ADS-B
Thu 11:41:17 PM 36.2240 -87.9040 243° Southwest 412 474 33,700 -667 Descending FlightAware ADS-B
Thu 11:42:07 PM 36.1830 -88.0010 242° Southwest 410 472 33,300 -240 Descending FlightAware ADS-B
Thu 11:42:57 PM 36.1450 -88.0890 242° Southwest 410 472 33,300  Level FlightAware ADS-B
Thu 11:43:37 PM 36.1150 -88.1590 242° Southwest 410 472 33,300  Level FlightAware ADS-B
Thu 11:44:17 PM 36.0840 -88.2300 242° Southwest 410 472 33,300  Level FlightAware ADS-B
Thu 11:44:57 PM 36.0540 -88.3000 242° Southwest 410 472 33,300  Level FlightAware ADS-B
Thu 11:45:37 PM 36.0240 -88.3710 242° Southwest 410 472 33,300  Level FlightAware ADS-B
Thu 11:46:27 PM 35.9860 -88.4590 242° Southwest 410 472 33,300  Level FlightAware ADS-B
Thu 11:47:07 PM 35.9560 -88.5290 242° Southwest 410 472 33,300  Level FlightAware ADS-B
Thu 11:47:47 PM 35.9250 -88.5990 241° Southwest 410 472 33,300  Level FlightAware ADS-B
Thu 11:48:27 PM 35.8950 -88.6700 242° Southwest 410 472 33,300  Level FlightAware ADS-B
Thu 11:49:07 PM 35.8650 -88.7400 242° Southwest 410 472 33,300  Level FlightAware ADS-B
Thu 11:49:57 PM 35.8270 -88.8280 242° Southwest 410 472 33,300  Level FlightAware ADS-B
Thu 11:50:37 PM 35.7970 -88.8980 242° Southwest 410 472 33,300  Level FlightAware ADS-B
Thu 11:51:17 PM 35.7660 -88.9680 241° Southwest 410 472 33,300 -11,731 Level FlightAware ADS-B
Thu 11:51:44 PM 35.7019 -89.1069 241° Southwest 356 410 20,200 -10,000 Descending Memphis Center
Thu 11:52:44 PM 35.6442 -89.1844 227° Southwest 332 382 18,800 -1,350 Descending Memphis Center
Thu 11:53:44 PM 35.5825 -89.2644 227° Southwest 320 368 17,500 -1,350 Descending Memphis Center
Thu 11:54:44 PM 35.5225 -89.3417 226° Southwest 320 368 16,100 -1,300 Descending Memphis Center
Thu 11:55:44 PM 35.4647 -89.4164 226° Southwest 313 360 14,900 -800 Descending Memphis Center
Thu 11:56:44 PM 35.4383 -89.5083 251° West 296 341 14,500 -800 Descending Memphis Center
Thu 11:57:44 PM 35.4158 -89.5953 252° West 276 318 13,300 -1,100 Descending Memphis Center
Thu 11:58:44 PM 35.3936 -89.6897 254° West 270 311 12,300 -1,050 Descending Memphis Center
Thu 11:59:44 PM 35.3731 -89.7714 253° West 258 297 11,200 -1,050 Descending Memphis Center
Fri 12:00:44 AM 35.3547 -89.8481 254° West 253 291 10,200 -650 Descending Memphis Center
Fri 12:01:44 AM 35.3342 -89.9142 249° West 229 264 9,900 -611 Descending Memphis Center
Fri 12:02:32 AM 35.2833 -89.9000 167° South 189 217 9,100 -1,009 Descending KMEM
Fri 12:03:31 AM 35.2333 -89.9000 180° South 193 222 8,100 -1,034 Descending KMEM
Fri 12:04:28 AM 35.1833 -89.8833 165° South 193 222 7,100 -1,000 Descending KMEM
Fri 12:05:37 AM 35.1167 -89.8833 180° South 195 224 6,000 -683 Descending KMEM
Fri 12:06:31 AM 35.0833 -89.8667 158° South 193 222 5,700 -737 Descending KMEM
Fri 12:07:31 AM 35.0333 -89.8667 180° South 186 214 4,600 -872 Descending KMEM
Fri 12:08:28 AM 34.9833 -89.8667 180° South 185 213 4,000 -308 Descending KMEM
Fri 12:09:28 AM 34.9333 -89.8667 180° South 186 214 4,000  Level KMEM
Fri 12:10:37 AM 34.8667 -89.8667 180° South 179 206 4,000  Level KMEM
Fri 12:11:25 AM 34.8167 -89.8667 180° South 185 213 4,000  Level KMEM
Fri 12:12:31 AM 34.7667 -89.8500 165° South 184 212 4,000  Level KMEM
Fri 12:13:32 AM 34.7167 -89.8500 180° South 180 207 4,000  Level KMEM
Fri 12:14:31 AM 34.6667 -89.8500 180° South 182 209 4,000 -350 Level KMEM
Fri 12:15:32 AM 34.6500 -89.9000 248° West 215 247 3,300 -500 Descending KMEM
Fri 12:16:31 AM 34.6833 -89.9500 309° West 222 255 3,000 -158 Descending KMEM
Fri 12:17:26 AM 34.7333 -89.9667 345° North 203 234 3,000  Level KMEM
Fri 12:18:28 AM 34.8000 -89.9667 360° North 198 228 3,000  Level KMEM
Fri 12:19:28 AM 34.8500 -89.9667 360° North 198 228 3,000 -153 Level KMEM
Fri 12:20:26 AM 34.9000 -89.9667 360° North 198 228 2,700 -667 Descending KMEM
Fri 12:21:25 AM 34.9500 -89.9667 360° North 187 215 1,700 -885 Descending KMEM
Fri 12:22:28 AM 35.0000 -89.9667 360° North 135 155 900 -762 Descending KMEM
Fri 12:24:00 AM 35.0333 -89.9667 340° North  Level FlightAware Approximate

Login

Don't have an account? Register now (free) for customized features, flight alerts, and more!